createdAt,value
2019-03-15T00:00:04.653Z,89.35
2019-03-15T00:02:33.954Z,89.50
2019-03-15T00:05:03.029Z,89.66
2019-03-15T00:07:31.649Z,89.44
2019-03-15T00:10:00.625Z,89.21
2019-03-15T00:12:29.617Z,88.80
2019-03-15T00:14:58.346Z,88.80
2019-03-15T00:17:27.299Z,88.99
2019-03-15T00:19:56.189Z,88.32
2019-03-15T00:22:25.491Z,88.32
2019-03-15T00:24:55.201Z,88.04
2019-03-15T00:27:24.094Z,88.73
2019-03-15T00:29:52.738Z,89.62
2019-03-15T00:32:21.671Z,89.62
2019-03-15T00:34:50.577Z,89.48
2019-03-15T00:37:19.558Z,88.55
2019-03-15T00:39:48.228Z,88.55
2019-03-15T00:42:16.916Z,88.29
2019-03-15T00:44:45.820Z,87.71
2019-03-15T00:47:14.820Z,87.85
2019-03-15T00:49:43.433Z,87.54
2019-03-15T00:52:12.445Z,87.56
2019-03-15T00:54:41.430Z,88.37
2019-03-15T00:57:10.687Z,88.32
2019-03-15T00:59:39.579Z,88.32
2019-03-15T01:02:08.559Z,89.00
2019-03-15T01:04:37.178Z,89.00
2019-03-15T01:07:05.818Z,90.13
2019-03-15T01:09:35.262Z,90.38
2019-03-15T01:12:04.301Z,90.77
2019-03-15T01:14:33.231Z,90.70
2019-03-15T01:17:01.858Z,90.98
2019-03-15T01:19:30.819Z,91.63
2019-03-15T01:22:00.114Z,91.40
2019-03-15T01:24:29.005Z,91.40
2019-03-15T01:26:58.200Z,91.64
2019-03-15T01:29:26.834Z,91.64
2019-03-15T01:31:55.792Z,92.03
2019-03-15T01:34:25.077Z,92.04
2019-03-15T01:36:53.700Z,92.09
2019-03-15T01:39:22.971Z,92.02
2019-03-15T01:41:51.861Z,92.02
2019-03-15T01:44:20.749Z,92.54
2019-03-15T01:46:49.659Z,92.62
2019-03-15T01:49:18.532Z,92.54
2019-03-15T01:51:47.731Z,92.51
2019-03-15T01:54:17.242Z,92.85
2019-03-15T01:56:45.853Z,92.71
2019-03-15T01:59:15.121Z,92.71
2019-03-15T02:01:44.010Z,92.90
2019-03-15T02:04:12.875Z,92.91
2019-03-15T02:06:42.137Z,92.84
2019-03-15T02:09:10.734Z,92.80
2019-03-15T02:11:39.691Z,92.92
2019-03-15T02:14:08.543Z,92.96
2019-03-15T02:16:37.470Z,93.38
2019-03-15T02:19:06.105Z,93.19
2019-03-15T02:21:35.035Z,92.94
2019-03-15T02:24:04.253Z,93.03
2019-03-15T02:26:32.868Z,92.83
2019-03-15T02:29:01.599Z,92.78
2019-03-15T02:31:30.836Z,92.78
2019-03-15T02:34:02.099Z,93.14
2019-03-15T02:36:31.062Z,93.08
2019-03-15T02:39:00.096Z,93.08
2019-03-15T02:41:28.698Z,93.29
2019-03-15T02:43:57.736Z,93.29
2019-03-15T02:46:26.945Z,93.61
2019-03-15T02:48:55.940Z,93.60
2019-03-15T02:51:24.847Z,93.45
2019-03-15T02:53:54.127Z,93.47
2019-03-15T02:56:23.129Z,93.50
2019-03-15T02:58:51.751Z,93.56
2019-03-15T03:01:21.037Z,93.58
2019-03-15T03:03:49.930Z,93.17
2019-03-15T03:06:18.885Z,93.17
2019-03-15T03:08:47.778Z,93.21
2019-03-15T03:11:16.414Z,93.45
2019-03-15T03:13:45.365Z,93.45
2019-03-15T03:16:14.023Z,93.05
2019-03-15T03:18:42.934Z,93.10
2019-03-15T03:21:11.930Z,93.15
2019-03-15T03:23:41.228Z,93.15
2019-03-15T03:26:10.213Z,93.09
2019-03-15T03:28:39.073Z,93.09
2019-03-15T03:31:07.780Z,93.02
2019-03-15T03:33:36.995Z,93.10
2019-03-15T03:36:05.896Z,93.31
2019-03-15T03:38:34.881Z,93.31
2019-03-15T03:41:03.876Z,93.29
2019-03-15T03:43:32.517Z,93.56
2019-03-15T03:46:01.187Z,93.46
2019-03-15T03:48:30.451Z,93.46
2019-03-15T03:51:00.228Z,92.92
2019-03-15T03:53:29.113Z,92.65
2019-03-15T03:55:58.044Z,92.52
2019-03-15T03:58:27.204Z,91.58
2019-03-15T04:00:55.961Z,91.02
2019-03-15T04:03:25.329Z,90.68
2019-03-15T04:05:54.530Z,89.16
2019-03-15T04:08:23.724Z,88.32
2019-03-15T04:10:52.819Z,88.32
2019-03-15T04:13:21.815Z,86.71
2019-03-15T04:15:50.915Z,86.71
2019-03-15T04:18:19.800Z,86.23
2019-03-15T04:20:48.431Z,85.95
2019-03-15T04:23:17.697Z,85.68
2019-03-15T04:25:46.990Z,86.00
2019-03-15T04:28:15.883Z,86.00
2019-03-15T04:30:44.904Z,85.10
2019-03-15T04:33:13.531Z,84.30
2019-03-15T04:35:42.473Z,81.63
2019-03-15T04:38:11.136Z,81.63
2019-03-15T04:40:40.314Z,81.02
2019-03-15T04:43:08.959Z,81.57
2019-03-15T04:45:37.919Z,81.57
2019-03-15T04:48:06.553Z,82.62
2019-03-15T04:50:35.800Z,82.62
2019-03-15T04:53:04.716Z,83.42
2019-03-15T04:55:34.103Z,84.06
2019-03-15T04:58:03.507Z,84.57
2019-03-15T05:00:32.699Z,85.07
2019-03-15T05:03:01.567Z,85.20
2019-03-15T05:05:30.242Z,85.76
2019-03-15T05:07:59.480Z,85.83
2019-03-15T05:10:28.111Z,85.83
2019-03-15T05:12:57.033Z,85.88
2019-03-15T05:15:26.045Z,85.88
2019-03-15T05:17:54.936Z,85.47
2019-03-15T05:20:23.671Z,84.81
2019-03-15T05:22:52.721Z,83.33
2019-03-15T05:25:21.287Z,82.17
2019-03-15T05:27:49.992Z,81.57
2019-03-15T05:30:18.883Z,81.33
2019-03-15T05:32:47.514Z,81.33
2019-03-15T05:35:16.124Z,80.69
2019-03-15T05:37:45.039Z,80.65
2019-03-15T05:40:14.053Z,80.03
2019-03-15T05:42:43.031Z,80.56
2019-03-15T05:45:12.023Z,81.58
2019-03-15T05:47:41.033Z,81.58
2019-03-15T05:50:10.621Z,81.24
2019-03-15T05:52:39.528Z,81.40
2019-03-15T05:55:10.063Z,81.08
2019-03-15T05:57:38.706Z,80.81
2019-03-15T06:00:09.260Z,80.81
2019-03-15T06:02:38.162Z,80.20
2019-03-15T06:05:08.918Z,80.20
2019-03-15T06:07:38.325Z,79.97
2019-03-15T06:10:08.194Z,79.63
2019-03-15T06:12:37.103Z,78.51
2019-03-15T06:15:06.402Z,78.94
2019-03-15T06:17:35.289Z,78.94
2019-03-15T06:20:06.436Z,78.27
2019-03-15T06:22:34.917Z,77.24
2019-03-15T06:25:04.010Z,76.40
2019-03-15T06:27:33.313Z,76.40
2019-03-15T06:30:01.971Z,76.51
2019-03-15T06:32:30.899Z,76.47
2019-03-15T06:35:00.166Z,76.94
2019-03-15T06:37:29.128Z,76.86
2019-03-15T06:39:58.089Z,76.07
2019-03-15T06:42:27.076Z,76.07
2019-03-15T06:44:58.167Z,76.91
2019-03-15T06:47:26.289Z,76.91
2019-03-15T06:49:55.198Z,76.61
2019-03-15T06:52:24.179Z,76.48
2019-03-15T06:54:53.071Z,76.48
2019-03-15T06:57:21.730Z,76.01
2019-03-15T06:59:51.072Z,75.42
2019-03-15T07:02:19.806Z,76.31
2019-03-15T07:04:48.443Z,75.93
2019-03-15T07:07:17.399Z,75.34
2019-03-15T07:09:46.286Z,75.76
2019-03-15T07:12:15.199Z,74.30
2019-03-15T07:14:44.191Z,75.12
2019-03-15T07:17:13.177Z,75.12
2019-03-15T07:19:42.142Z,76.38
2019-03-15T07:22:11.074Z,76.32
2019-03-15T07:24:43.465Z,77.14
2019-03-15T07:27:13.293Z,77.46
2019-03-15T07:29:41.369Z,78.61
2019-03-15T07:32:10.629Z,78.61
2019-03-15T07:34:39.624Z,77.92
2019-03-15T07:37:08.261Z,77.76
2019-03-15T07:39:37.201Z,78.44
2019-03-15T07:42:06.947Z,79.96
2019-03-15T07:44:36.015Z,79.96
2019-03-15T07:47:05.005Z,80.91
2019-03-15T07:49:33.670Z,82.06
2019-03-15T07:52:03.930Z,83.34
2019-03-15T07:54:38.097Z,82.89
2019-03-15T07:57:03.465Z,82.58
2019-03-15T07:59:32.125Z,82.58
2019-03-15T08:02:01.119Z,82.47
2019-03-15T08:04:30.727Z,82.63
2019-03-15T08:06:59.364Z,82.25
2019-03-15T08:09:28.303Z,81.97
2019-03-15T08:11:57.311Z,81.45
2019-03-15T08:14:26.259Z,80.46
2019-03-15T08:16:55.731Z,81.63
2019-03-15T08:19:24.441Z,81.63
2019-03-15T08:21:56.451Z,80.41
2019-03-15T08:24:24.016Z,80.30
2019-03-15T08:26:53.200Z,79.42
2019-03-15T08:29:22.746Z,80.37
2019-03-15T08:31:52.011Z,79.25
2019-03-15T08:34:20.912Z,77.09
2019-03-15T08:36:49.894Z,77.75
2019-03-15T08:39:19.195Z,77.90
2019-03-15T08:41:48.112Z,76.86
2019-03-15T08:44:16.757Z,75.85
2019-03-15T08:46:45.420Z,75.32
2019-03-15T08:49:14.368Z,77.14
2019-03-15T08:51:42.994Z,76.42
2019-03-15T08:54:11.676Z,77.99
2019-03-15T08:56:40.644Z,77.58
2019-03-15T08:59:09.821Z,78.07
2019-03-15T09:01:38.783Z,78.72
2019-03-15T09:04:07.698Z,78.21
2019-03-15T09:06:40.697Z,77.04
2019-03-15T09:09:08.468Z,77.04
2019-03-15T09:11:37.063Z,76.53
2019-03-15T09:14:05.888Z,77.68
2019-03-15T09:16:34.529Z,77.24
2019-03-15T09:19:03.192Z,75.69
2019-03-15T09:21:32.091Z,75.95
2019-03-15T09:24:00.737Z,75.68
2019-03-15T09:26:29.700Z,75.17
2019-03-15T09:28:58.971Z,75.41
2019-03-15T09:31:27.608Z,75.36
2019-03-15T09:33:56.548Z,74.92
2019-03-15T09:36:25.441Z,75.58
2019-03-15T09:38:54.425Z,75.54
2019-03-15T09:41:31.819Z,76.02
2019-03-15T09:43:53.666Z,75.96
2019-03-15T09:46:22.949Z,75.90
2019-03-15T09:48:51.961Z,76.32
2019-03-15T09:51:20.605Z,75.68
2019-03-15T09:53:49.237Z,75.12
2019-03-15T09:56:18.104Z,75.71
2019-03-15T09:58:47.103Z,75.52
2019-03-15T10:01:33.702Z,75.53
2019-03-15T10:03:46.467Z,76.46
2019-03-15T10:06:19.373Z,76.20
2019-03-15T10:08:46.656Z,76.07
2019-03-15T10:11:15.650Z,76.28
2019-03-15T10:13:44.286Z,76.16
2019-03-15T10:16:12.948Z,75.02
2019-03-15T10:18:42.447Z,75.56
2019-03-15T10:21:11.316Z,75.71
2019-03-15T10:23:40.927Z,75.57
2019-03-15T10:26:10.224Z,76.53
2019-03-15T10:28:38.826Z,75.71
2019-03-15T10:31:08.108Z,74.13
2019-03-15T10:33:49.602Z,75.32
2019-03-15T10:36:07.548Z,74.58
2019-03-15T10:38:36.525Z,76.08
2019-03-15T10:41:05.259Z,75.06
2019-03-15T10:43:34.518Z,74.71
2019-03-15T10:46:06.016Z,74.25
2019-03-15T10:48:34.167Z,74.27
2019-03-15T10:51:03.033Z,73.94
2019-03-15T10:53:32.228Z,74.13
2019-03-15T10:56:00.867Z,74.15
2019-03-15T10:58:29.486Z,73.37
2019-03-15T11:00:58.132Z,73.81
2019-03-15T11:03:27.082Z,74.00
2019-03-15T11:05:55.721Z,73.80
2019-03-15T11:08:24.452Z,73.48
2019-03-15T11:10:53.652Z,73.70
2019-03-15T11:13:22.381Z,73.18
2019-03-15T11:15:51.642Z,72.91
2019-03-15T11:18:20.307Z,73.70
2019-03-15T11:20:49.231Z,73.01
2019-03-15T11:23:18.215Z,72.11
2019-03-15T11:25:47.195Z,72.04
2019-03-15T11:28:15.821Z,72.40
2019-03-15T11:30:44.778Z,72.15
2019-03-15T11:33:14.448Z,73.12
2019-03-15T11:35:43.166Z,73.07
2019-03-15T11:38:11.836Z,72.58
2019-03-15T11:40:40.749Z,72.18
2019-03-15T11:43:09.951Z,71.89
2019-03-15T11:45:39.153Z,72.48
2019-03-15T11:48:09.125Z,72.50
2019-03-15T11:50:37.944Z,72.42
2019-03-15T11:53:06.830Z,71.54
2019-03-15T11:55:36.048Z,71.76
2019-03-15T11:58:04.738Z,71.31
2019-03-15T12:00:33.623Z,71.38
2019-03-15T12:03:02.516Z,71.66
2019-03-15T12:05:31.193Z,72.12
2019-03-15T12:08:00.811Z,71.28
2019-03-15T12:10:29.796Z,71.59
2019-03-15T12:12:58.470Z,70.99
2019-03-15T12:15:27.096Z,71.34
2019-03-15T12:17:56.070Z,72.06
2019-03-15T12:20:24.712Z,72.39
2019-03-15T12:22:53.624Z,73.34
2019-03-15T12:25:22.265Z,73.54
2019-03-15T12:27:51.226Z,73.95
2019-03-15T12:30:19.947Z,75.96
2019-03-15T12:32:48.810Z,75.78
2019-03-15T12:35:17.476Z,75.90
2019-03-15T12:37:46.101Z,76.64
2019-03-15T12:40:14.898Z,76.66
2019-03-15T12:42:44.274Z,77.63
2019-03-15T12:45:13.080Z,78.35
2019-03-15T12:47:41.789Z,79.68
2019-03-15T12:50:10.838Z,80.57
2019-03-15T12:52:47.162Z,81.31
2019-03-15T12:55:10.668Z,82.44
2019-03-15T12:57:39.886Z,83.62
2019-03-15T13:00:11.424Z,84.45
2019-03-15T13:02:40.121Z,86.14
2019-03-15T13:05:09.129Z,86.37
2019-03-15T13:07:38.691Z,87.06
2019-03-15T13:10:10.395Z,87.00
2019-03-15T13:12:39.528Z,87.00
2019-03-15T13:15:10.294Z,87.39
2019-03-15T13:17:39.092Z,88.65
2019-03-15T13:20:09.108Z,89.43
2019-03-15T13:22:37.733Z,89.11
2019-03-15T13:25:07.175Z,89.72
2019-03-15T13:27:36.389Z,89.85
2019-03-15T13:30:05.956Z,90.23
2019-03-15T13:32:34.623Z,90.01
2019-03-15T13:35:03.243Z,90.01
2019-03-15T13:37:32.159Z,90.42
2019-03-15T13:40:01.358Z,89.89
2019-03-15T13:42:30.348Z,90.03
2019-03-15T13:44:59.858Z,90.28
2019-03-15T13:47:28.534Z,91.16
2019-03-15T13:49:57.452Z,91.50
2019-03-15T13:52:26.834Z,91.50
2019-03-15T13:54:55.760Z,92.03
2019-03-15T13:57:24.730Z,91.98
2019-03-15T13:59:54.026Z,92.85
2019-03-15T14:02:23.337Z,92.84
2019-03-15T14:04:52.326Z,93.36
2019-03-15T14:07:20.938Z,92.71
2019-03-15T14:09:49.868Z,93.31
2019-03-15T14:12:18.809Z,93.31
2019-03-15T14:14:47.782Z,93.18
2019-03-15T14:17:16.780Z,93.31
2019-03-15T14:19:46.390Z,93.29
2019-03-15T14:22:15.138Z,93.04
2019-03-15T14:24:44.081Z,93.04
2019-03-15T14:27:12.736Z,93.21
2019-03-15T14:29:41.646Z,92.95
2019-03-15T14:32:10.848Z,93.12
2019-03-15T14:34:39.738Z,92.84
2019-03-15T14:37:10.302Z,92.20
2019-03-15T14:39:39.064Z,92.20
2019-03-15T14:42:08.063Z,92.31
2019-03-15T14:44:37.042Z,92.22
2019-03-15T14:47:05.736Z,91.63
2019-03-15T14:49:37.967Z,91.50
2019-03-15T14:52:05.413Z,90.97
2019-03-15T14:54:34.019Z,90.41
2019-03-15T14:57:03.219Z,89.96
2019-03-15T14:59:31.884Z,89.11
2019-03-15T15:02:00.819Z,89.11
2019-03-15T15:04:29.454Z,89.19
2019-03-15T15:06:58.425Z,88.95
2019-03-15T15:09:27.387Z,89.01
2019-03-15T15:11:56.891Z,89.05
2019-03-15T15:14:25.581Z,89.23
2019-03-15T15:16:54.348Z,89.50
2019-03-15T15:19:23.275Z,89.33
2019-03-15T15:21:53.029Z,89.55
2019-03-15T15:24:22.014Z,87.54
2019-03-15T15:26:50.615Z,86.24
2019-03-15T15:29:22.032Z,87.23
2019-03-15T15:31:50.478Z,88.27
2019-03-15T15:34:19.129Z,88.16
2019-03-15T15:36:47.822Z,86.71
2019-03-15T15:41:44.617Z,83.91
2019-03-15T15:44:13.235Z,79.55
2019-03-15T15:46:42.743Z,78.67
2019-03-15T15:49:12.003Z,77.08
2019-03-15T15:51:41.016Z,75.99
2019-03-15T15:54:09.990Z,74.13
2019-03-15T15:56:39.207Z,75.79
2019-03-15T15:59:08.135Z,73.77
2019-03-15T16:01:37.383Z,73.35
2019-03-15T16:04:06.273Z,71.28
2019-03-15T16:06:35.264Z,72.04
2019-03-15T16:09:04.874Z,69.85
2019-03-15T16:11:34.070Z,68.90
2019-03-15T16:14:02.965Z,68.90
2019-03-15T16:16:31.853Z,69.86
2019-03-15T16:19:00.779Z,68.83
2019-03-15T16:21:29.411Z,69.98
2019-03-15T16:23:58.611Z,69.68
2019-03-15T16:26:27.519Z,68.92
2019-03-15T16:28:56.433Z,69.46
2019-03-15T16:31:26.330Z,69.81
2019-03-15T16:33:55.001Z,70.21
2019-03-15T16:36:23.903Z,69.24
2019-03-15T16:38:52.904Z,69.09
2019-03-15T16:41:21.662Z,68.93
2019-03-15T16:43:50.279Z,69.61
2019-03-15T16:46:19.331Z,68.52
2019-03-15T16:48:48.017Z,67.95
2019-03-15T16:51:19.700Z,66.82
2019-03-15T16:53:47.679Z,67.11
2019-03-15T16:56:19.912Z,69.08
2019-03-15T16:58:47.118Z,70.00
2019-03-15T17:01:15.729Z,70.20
2019-03-15T17:03:44.396Z,68.15
2019-03-15T17:06:13.265Z,67.92
2019-03-15T17:08:42.270Z,68.48
2019-03-15T17:11:11.251Z,69.59
2019-03-15T17:13:40.136Z,69.40
2019-03-15T17:16:08.912Z,69.42
2019-03-15T17:18:38.174Z,69.88
2019-03-15T17:21:07.434Z,69.09
2019-03-15T17:23:36.350Z,69.51
2019-03-15T17:26:05.742Z,70.82
2019-03-15T17:28:35.029Z,68.17
2019-03-15T17:31:09.919Z,67.57
2019-03-15T17:33:39.435Z,67.21
2019-03-15T17:36:08.359Z,67.09
2019-03-15T17:38:36.986Z,67.62
2019-03-15T17:41:06.042Z,66.87
2019-03-15T17:43:35.240Z,66.60
2019-03-15T17:46:04.747Z,68.11
2019-03-15T17:48:34.277Z,66.97
2019-03-15T17:51:03.269Z,66.97
2019-03-15T17:53:32.244Z,66.70
2019-03-15T17:56:00.870Z,67.03
2019-03-15T17:58:29.499Z,66.33
2019-03-15T18:00:58.568Z,67.02
2019-03-15T18:03:27.800Z,68.05
2019-03-15T18:05:56.467Z,69.25
2019-03-15T18:08:25.378Z,70.20
2019-03-15T18:10:54.518Z,69.12
2019-03-15T18:13:23.447Z,68.87
2019-03-15T18:15:52.357Z,69.05
2019-03-15T18:18:21.364Z,68.50
2019-03-15T18:20:50.244Z,68.41
2019-03-15T18:23:19.149Z,69.03
2019-03-15T18:25:48.130Z,68.17
2019-03-15T18:28:17.034Z,68.29
2019-03-15T18:30:45.715Z,67.91
2019-03-15T18:33:14.801Z,67.70
2019-03-15T18:35:43.443Z,67.54
2019-03-15T18:38:12.789Z,67.49
2019-03-15T18:40:42.400Z,67.86
2019-03-15T18:43:11.026Z,67.48
2019-03-15T18:45:39.628Z,67.35
2019-03-15T18:48:08.974Z,66.56
2019-03-15T18:50:38.072Z,66.68
2019-03-15T18:53:06.700Z,67.55
2019-03-15T18:55:35.653Z,67.65
2019-03-15T18:58:04.944Z,67.75
2019-03-15T19:00:33.673Z,67.36
2019-03-15T19:03:02.931Z,67.12
2019-03-15T19:05:31.570Z,67.70
2019-03-15T19:08:00.543Z,71.26
2019-03-15T19:10:29.531Z,70.46
2019-03-15T19:12:58.533Z,71.16
2019-03-15T19:15:27.494Z,71.09
2019-03-15T19:17:56.211Z,70.53
2019-03-15T19:20:24.907Z,70.38
2019-03-15T19:22:53.988Z,70.79
2019-03-15T19:25:22.635Z,71.42
2019-03-15T19:27:51.276Z,73.09
2019-03-15T19:30:20.742Z,73.09
2019-03-15T19:32:49.459Z,73.76
2019-03-15T19:35:18.551Z,74.51
2019-03-15T19:37:47.511Z,75.18
2019-03-15T19:40:16.276Z,75.18
2019-03-15T19:42:45.768Z,76.18
2019-03-15T19:45:14.889Z,76.83
2019-03-15T19:47:43.917Z,76.83
2019-03-15T19:50:14.004Z,75.14
2019-03-15T19:52:43.013Z,74.92
2019-03-15T19:55:12.722Z,74.92
2019-03-15T19:57:42.024Z,74.28
2019-03-15T20:00:12.827Z,74.28
2019-03-15T20:02:42.264Z,73.13
2019-03-15T20:05:11.035Z,73.13
2019-03-15T20:07:39.770Z,71.61
2019-03-15T20:10:10.267Z,70.00
2019-03-15T20:12:38.892Z,70.00
2019-03-15T20:15:07.955Z,70.17
2019-03-15T20:17:37.556Z,70.17
2019-03-15T20:20:06.748Z,70.23
2019-03-15T20:22:35.973Z,70.83
2019-03-15T20:25:05.493Z,71.04
2019-03-15T20:27:34.757Z,71.19
2019-03-15T20:30:03.669Z,71.19
2019-03-15T20:32:32.312Z,71.47
2019-03-15T20:35:00.923Z,71.17
2019-03-15T20:37:29.577Z,71.09
2019-03-15T20:39:58.228Z,71.14
2019-03-15T20:42:27.501Z,71.14
2019-03-15T20:44:56.792Z,70.67
2019-03-15T20:47:25.419Z,70.24
2019-03-15T20:49:54.682Z,70.63
2019-03-15T20:52:23.368Z,70.63
2019-03-15T20:54:52.670Z,70.67
2019-03-15T20:57:21.563Z,70.62
2019-03-15T20:59:51.099Z,71.55
2019-03-15T21:02:20.676Z,71.55
2019-03-15T21:04:49.338Z,71.81
2019-03-15T21:07:17.971Z,72.22
2019-03-15T21:09:46.691Z,71.83
2019-03-15T21:12:15.433Z,72.40
2019-03-15T21:14:44.725Z,71.88
2019-03-15T21:17:13.331Z,71.88
2019-03-15T21:19:42.005Z,72.07
2019-03-15T21:22:10.995Z,72.44
2019-03-15T21:24:40.184Z,71.75
2019-03-15T21:27:08.922Z,71.75
2019-03-15T21:29:38.171Z,71.99
2019-03-15T21:32:06.977Z,71.81
2019-03-15T21:34:35.626Z,71.95
2019-03-15T21:37:04.331Z,71.63
2019-03-15T21:39:33.227Z,70.96
2019-03-15T21:42:01.852Z,70.96
2019-03-15T21:44:31.114Z,70.99
2019-03-15T21:46:59.737Z,70.69
2019-03-15T21:49:28.700Z,71.04
2019-03-15T21:51:57.336Z,71.04
2019-03-15T21:54:25.939Z,71.50
2019-03-15T21:56:54.616Z,71.50
2019-03-15T21:59:23.538Z,71.52
2019-03-15T22:01:52.198Z,72.28
2019-03-15T22:04:20.860Z,72.28
2019-03-15T22:06:50.104Z,72.71
2019-03-15T22:09:19.663Z,72.60
2019-03-15T22:11:49.388Z,72.24
2019-03-15T22:14:18.616Z,71.76
2019-03-15T22:16:47.246Z,71.76
2019-03-15T22:19:16.220Z,74.88
2019-03-15T22:21:46.355Z,71.79
2019-03-15T22:24:14.998Z,71.79
2019-03-15T22:26:43.642Z,71.66
2019-03-15T22:29:12.585Z,71.43
2019-03-15T22:31:41.481Z,72.25
2019-03-15T22:34:10.131Z,71.40
2019-03-15T22:36:39.840Z,71.91
2019-03-15T22:39:08.871Z,71.91
2019-03-15T22:41:37.511Z,72.41
2019-03-15T22:44:06.449Z,72.41
2019-03-15T22:46:35.840Z,71.94
2019-03-15T22:49:05.151Z,71.94
2019-03-15T22:51:34.043Z,72.68
2019-03-15T22:54:02.933Z,72.68
2019-03-15T22:56:31.824Z,72.82
2019-03-15T22:59:00.755Z,72.82
2019-03-15T23:01:30.714Z,72.70
2019-03-15T23:03:59.842Z,72.51
2019-03-15T23:06:28.749Z,72.91
2019-03-15T23:08:57.718Z,72.68
2019-03-15T23:11:26.373Z,72.64
2019-03-15T23:13:55.644Z,73.14
2019-03-15T23:16:24.904Z,73.48
2019-03-15T23:18:53.899Z,73.48
2019-03-15T23:21:22.517Z,73.46
2019-03-15T23:23:51.581Z,72.81
2019-03-15T23:26:20.218Z,72.83
2019-03-15T23:28:48.859Z,73.54
2019-03-15T23:31:17.886Z,74.08
2019-03-15T23:33:47.147Z,74.08
2019-03-15T23:36:15.764Z,73.97
2019-03-15T23:38:45.023Z,74.29
2019-03-15T23:41:13.674Z,74.83
2019-03-15T23:43:42.613Z,74.83
2019-03-15T23:46:11.370Z,74.83
2019-03-15T23:48:40.408Z,74.78
2019-03-15T23:51:09.033Z,74.78
2019-03-15T23:53:37.982Z,74.81
2019-03-15T23:56:07.265Z,75.19
2019-03-15T23:58:36.269Z,74.49
